createdAt,value
2023-02-28T00:00:11.711Z,25.67
2023-02-28T00:01:15.286Z,32.15
2023-02-28T00:02:18.870Z,32.47
2023-02-28T00:03:20.665Z,22.17
2023-02-28T00:04:22.420Z,24.13
2023-02-28T00:05:26.149Z,25.77
2023-02-28T00:06:28.374Z,23.30
2023-02-28T00:07:31.620Z,28.30
2023-02-28T00:08:33.614Z,24.90
2023-02-28T00:09:35.368Z,22.35
2023-02-28T00:10:37.390Z,27.45
2023-02-28T00:11:39.200Z,22.92
2023-02-28T00:12:41.009Z,19.90
2023-02-28T00:13:47.648Z,32.22
2023-02-28T00:14:50.106Z,27.77
2023-02-28T00:16:01.543Z,28.35
2023-02-28T00:17:03.598Z,28.73
2023-02-28T00:18:05.495Z,26.75
2023-02-28T00:19:07.182Z,28.52
2023-02-28T00:20:11.124Z,29.10
2023-02-28T00:21:12.871Z,30.17
2023-02-28T00:22:14.816Z,32.17
2023-02-28T00:23:16.538Z,29.52
2023-02-28T00:24:18.239Z,25.75
2023-02-28T00:25:22.672Z,28.92
2023-02-28T00:26:24.500Z,29.58
2023-02-28T00:27:26.262Z,23.38
2023-02-28T00:28:28.092Z,34.70
2023-02-28T00:29:29.786Z,32.50
2023-02-28T00:30:31.602Z,28.38
2023-02-28T00:31:33.318Z,27.92
2023-02-28T00:32:35.751Z,26.98
2023-02-28T00:33:37.584Z,36.00
2023-02-28T00:34:39.449Z,34.97
2023-02-28T00:35:41.331Z,30.25
2023-02-28T00:36:46.455Z,30.90
2023-02-28T00:37:49.171Z,27.25
2023-02-28T00:38:50.921Z,25.27
2023-02-28T00:39:52.697Z,28.75
2023-02-28T00:40:54.388Z,24.45
2023-02-28T00:41:56.081Z,25.73
2023-02-28T00:42:57.868Z,32.50
2023-02-28T00:43:59.608Z,28.08
2023-02-28T00:45:01.417Z,27.05
2023-02-28T00:46:03.657Z,23.48
2023-02-28T00:47:05.694Z,24.17
2023-02-28T00:48:07.478Z,24.27
2023-02-28T00:49:09.363Z,25.55
2023-02-28T00:50:11.690Z,26.02
2023-02-28T00:51:13.470Z,21.10
2023-02-28T00:52:15.381Z,22.58
2023-02-28T00:53:17.144Z,25.27
2023-02-28T00:54:19.165Z,22.58
2023-02-28T00:55:20.983Z,27.13
2023-02-28T00:56:22.816Z,18.48
2023-02-28T00:57:24.851Z,28.23
2023-02-28T00:58:26.570Z,26.27
2023-02-28T00:59:28.633Z,28.23
2023-02-28T01:00:30.367Z,29.98
2023-02-28T01:01:32.696Z,22.58
2023-02-28T01:02:34.522Z,33.78
2023-02-28T01:03:36.298Z,23.27
2023-02-28T01:04:38.184Z,31.60
2023-02-28T01:05:40.029Z,21.50
2023-02-28T01:06:42.525Z,21.23
2023-02-28T01:07:44.302Z,23.20
2023-02-28T01:08:46.102Z,29.85
2023-02-28T01:09:47.811Z,28.40
2023-02-28T01:10:49.595Z,29.67
2023-02-28T01:11:51.306Z,31.52
2023-02-28T01:12:53.036Z,26.73
2023-02-28T01:13:54.764Z,29.35
2023-02-28T01:14:56.526Z,19.52
2023-02-28T01:15:58.329Z,28.00
2023-02-28T01:17:00.100Z,19.80
2023-02-28T01:18:02.136Z,19.23
2023-02-28T01:19:03.881Z,25.58
2023-02-28T01:20:06.047Z,25.85
2023-02-28T01:21:10.492Z,26.67
2023-02-28T01:22:12.224Z,23.42
2023-02-28T01:23:13.968Z,19.83
2023-02-28T01:24:15.699Z,33.05
2023-02-28T01:25:17.484Z,22.55
2023-02-28T01:26:23.144Z,27.05
2023-02-28T01:27:24.897Z,25.08
2023-02-28T01:28:26.723Z,24.08
2023-02-28T01:29:28.497Z,25.35
2023-02-28T01:30:30.270Z,33.38
2023-02-28T01:31:32.399Z,31.25
2023-02-28T01:32:34.336Z,26.33
2023-02-28T01:33:36.945Z,31.13
2023-02-28T01:34:38.664Z,27.55
2023-02-28T01:35:40.407Z,25.80
2023-02-28T01:36:42.169Z,23.40
2023-02-28T01:37:43.870Z,25.85
2023-02-28T01:38:46.130Z,21.50
2023-02-28T01:39:47.879Z,23.52
2023-02-28T01:40:50.104Z,22.75
2023-02-28T01:41:51.840Z,32.38
2023-02-28T01:42:53.556Z,31.52
2023-02-28T01:43:58.339Z,30.95
2023-02-28T01:45:28.260Z,31.92
2023-02-28T01:46:31.895Z,31.45
2023-02-28T01:47:42.022Z,29.85
2023-02-28T01:48:53.916Z,26.38
2023-02-28T01:49:55.900Z,32.95
2023-02-28T01:51:01.786Z,30.38
2023-02-28T01:52:03.969Z,32.03
2023-02-28T01:53:10.698Z,25.17
2023-02-28T01:54:16.769Z,28.38
2023-02-28T01:55:21.348Z,26.17
2023-02-28T01:56:31.794Z,20.38
2023-02-28T01:57:38.903Z,30.37
2023-02-28T01:58:41.048Z,24.00
2023-02-28T01:59:47.544Z,26.05
2023-02-28T02:00:50.269Z,24.98
2023-02-28T02:01:52.307Z,25.83
2023-02-28T02:03:00.521Z,25.13
2023-02-28T02:04:04.546Z,20.05
2023-02-28T02:05:13.467Z,32.50
2023-02-28T02:06:15.166Z,27.88
2023-02-28T02:07:17.968Z,26.73
2023-02-28T02:08:29.212Z,18.23
2023-02-28T02:09:31.204Z,22.20
2023-02-28T02:10:32.856Z,17.55
2023-02-28T02:11:36.937Z,24.63
2023-02-28T02:12:56.631Z,29.85
2023-02-28T02:14:04.174Z,14.70
2023-02-28T02:15:24.093Z,31.83
2023-02-28T02:16:34.657Z,28.90
2023-02-28T02:17:53.018Z,18.67
2023-02-28T02:19:31.541Z,21.80
2023-02-28T02:21:10.454Z,20.55
2023-02-28T02:22:45.910Z,27.98
2023-02-28T02:24:21.033Z,16.90
2023-02-28T02:25:51.666Z,22.10
2023-02-28T02:27:24.328Z,23.40
2023-02-28T02:28:40.933Z,24.02
2023-02-28T02:29:58.202Z,15.00
2023-02-28T02:31:33.887Z,17.67
2023-02-28T02:32:54.438Z,20.75
2023-02-28T02:34:01.994Z,22.67
2023-02-28T02:35:36.079Z,21.13
2023-02-28T02:36:50.363Z,20.35
2023-02-28T02:38:15.001Z,25.05
2023-02-28T02:39:49.411Z,21.65
2023-02-28T02:41:05.338Z,25.00
2023-02-28T02:42:28.543Z,22.77
2023-02-28T02:43:40.308Z,19.13
2023-02-28T02:44:48.917Z,17.95
2023-02-28T02:45:53.856Z,14.57
2023-02-28T02:47:02.325Z,18.80
2023-02-28T02:48:10.310Z,19.85
2023-02-28T02:49:21.631Z,23.50
2023-02-28T02:51:34.630Z,18.45
2023-02-28T02:52:42.131Z,15.50
2023-02-28T02:53:52.899Z,19.15
2023-02-28T02:54:58.925Z,33.58
2023-02-28T02:56:03.032Z,22.38
2023-02-28T02:57:09.744Z,18.30
2023-02-28T02:58:20.108Z,20.50
2023-02-28T02:59:24.901Z,22.55
2023-02-28T03:00:33.768Z,19.88
2023-02-28T03:01:38.684Z,24.55
2023-02-28T03:02:42.325Z,23.95
2023-02-28T03:03:44.963Z,29.75
2023-02-28T03:04:53.166Z,25.30
2023-02-28T03:05:54.850Z,17.65
2023-02-28T03:06:56.568Z,26.40
2023-02-28T03:07:58.258Z,21.45
2023-02-28T03:09:01.238Z,21.58
2023-02-28T03:10:03.124Z,18.73
2023-02-28T03:11:15.915Z,21.17
2023-02-28T03:12:17.638Z,20.00
2023-02-28T03:13:28.308Z,22.48
2023-02-28T03:14:32.802Z,24.95
2023-02-28T03:16:03.180Z,21.23
2023-02-28T03:17:55.836Z,22.48
2023-02-28T03:19:35.470Z,21.38
2023-02-28T03:21:06.451Z,16.60
2023-02-28T03:22:13.714Z,24.13
2023-02-28T03:23:22.712Z,20.42
2023-02-28T03:24:35.298Z,22.65
2023-02-28T03:26:17.653Z,21.88
2023-02-28T03:28:09.756Z,22.77
2023-02-28T03:29:14.045Z,21.65
2023-02-28T03:30:29.126Z,23.10
2023-02-28T03:31:31.188Z,24.00
2023-02-28T03:33:10.448Z,17.58
2023-02-28T03:34:19.705Z,29.15
2023-02-28T03:35:28.433Z,19.92
2023-02-28T03:36:33.517Z,18.98
2023-02-28T03:37:39.387Z,20.75
2023-02-28T03:38:52.222Z,20.70
2023-02-28T03:40:09.976Z,23.30
2023-02-28T03:41:18.796Z,20.70
2023-02-28T03:42:24.710Z,18.13
2023-02-28T03:43:33.136Z,19.67
2023-02-28T03:44:58.027Z,19.55
2023-02-28T03:46:03.446Z,26.75
2023-02-28T03:47:10.942Z,18.90
2023-02-28T03:48:23.224Z,20.67
2023-02-28T03:49:31.601Z,21.55
2023-02-28T03:50:40.468Z,23.85
2023-02-28T03:51:43.825Z,26.33
2023-02-28T03:53:20.834Z,17.92
2023-02-28T03:54:31.194Z,29.48
2023-02-28T03:55:44.538Z,19.83
2023-02-28T03:56:58.924Z,24.52
2023-02-28T03:58:17.055Z,20.70
2023-02-28T03:59:33.639Z,23.20
2023-02-28T04:00:49.622Z,22.98
2023-02-28T04:01:52.836Z,32.88
2023-02-28T04:02:55.044Z,19.52
2023-02-28T04:03:56.980Z,23.83
2023-02-28T04:04:58.949Z,22.30
2023-02-28T04:06:00.894Z,21.35
2023-02-28T04:07:08.480Z,26.58
2023-02-28T04:08:10.181Z,28.73
2023-02-28T04:09:15.131Z,25.67
2023-02-28T04:10:17.878Z,25.50
2023-02-28T04:11:28.834Z,21.88
2023-02-28T04:12:30.846Z,26.38
2023-02-28T04:13:32.704Z,28.73
2023-02-28T04:14:34.417Z,28.92
2023-02-28T04:15:36.204Z,24.98
2023-02-28T04:16:41.211Z,23.15
2023-02-28T04:17:43.362Z,21.95
2023-02-28T04:18:45.160Z,23.05
2023-02-28T04:19:46.864Z,27.80
2023-02-28T04:20:48.649Z,24.50
2023-02-28T04:21:52.922Z,25.88
2023-02-28T04:22:54.610Z,28.60
2023-02-28T04:23:57.084Z,22.88
2023-02-28T04:24:58.818Z,24.40
2023-02-28T04:26:00.688Z,22.45
2023-02-28T04:27:02.520Z,27.42
2023-02-28T04:28:04.321Z,25.13
2023-02-28T04:29:07.025Z,25.15
2023-02-28T04:30:09.392Z,28.42
2023-02-28T04:31:11.803Z,31.02
2023-02-28T04:32:14.350Z,22.02
2023-02-28T04:33:16.097Z,29.25
2023-02-28T04:34:20.080Z,25.90
2023-02-28T04:35:21.776Z,23.63
2023-02-28T04:36:24.349Z,28.42
2023-02-28T04:37:29.882Z,27.42
2023-02-28T04:38:35.385Z,26.67
2023-02-28T04:39:38.027Z,29.00
2023-02-28T04:40:39.749Z,29.27
2023-02-28T04:41:41.443Z,26.98
2023-02-28T04:42:43.219Z,27.38
2023-02-28T04:43:44.954Z,25.92
2023-02-28T04:44:46.714Z,27.92
2023-02-28T04:45:48.489Z,29.05
2023-02-28T04:46:51.377Z,29.20
2023-02-28T04:47:53.100Z,23.10
2023-02-28T04:48:55.621Z,24.23
2023-02-28T04:49:57.359Z,27.05
2023-02-28T04:51:08.137Z,30.13
2023-02-28T04:52:11.245Z,25.50
2023-02-28T04:53:12.942Z,32.45
2023-02-28T04:54:14.636Z,26.55
2023-02-28T04:55:16.504Z,25.58
2023-02-28T04:56:19.591Z,24.73
2023-02-28T04:57:21.299Z,28.02
2023-02-28T04:58:26.055Z,24.25
2023-02-28T04:59:27.788Z,26.65
2023-02-28T05:00:29.526Z,27.02
2023-02-28T05:01:34.149Z,27.25
2023-02-28T05:02:36.598Z,29.75
2023-02-28T05:03:38.315Z,24.92
2023-02-28T05:04:40.061Z,23.77
2023-02-28T05:05:41.805Z,25.42
2023-02-28T05:06:43.636Z,25.77
2023-02-28T05:07:46.013Z,29.90
2023-02-28T05:08:47.967Z,21.20
2023-02-28T05:09:49.711Z,26.52
2023-02-28T05:10:51.465Z,22.02
2023-02-28T05:11:53.186Z,25.48
2023-02-28T05:12:54.924Z,26.00
2023-02-28T05:13:56.925Z,25.77
2023-02-28T05:14:58.729Z,25.25
2023-02-28T05:16:00.518Z,25.27
2023-02-28T05:17:02.254Z,26.58
2023-02-28T05:18:04.186Z,25.70
2023-02-28T05:19:06.387Z,29.08
2023-02-28T05:20:15.627Z,22.60
2023-02-28T05:21:41.924Z,25.65
2023-02-28T05:22:44.542Z,21.42
2023-02-28T05:23:48.130Z,23.13
2023-02-28T05:24:50.066Z,26.60
2023-02-28T05:25:53.059Z,24.00
2023-02-28T05:26:55.854Z,20.30
2023-02-28T05:27:57.592Z,23.92
2023-02-28T05:28:59.286Z,22.63
2023-02-28T05:30:04.053Z,23.75
2023-02-28T05:31:05.805Z,23.67
2023-02-28T05:32:07.537Z,24.70
2023-02-28T05:33:12.458Z,22.95
2023-02-28T05:34:16.518Z,20.15
2023-02-28T05:35:18.378Z,24.77
2023-02-28T05:36:20.949Z,26.92
2023-02-28T05:37:22.829Z,22.75
2023-02-28T05:38:24.626Z,26.98
2023-02-28T05:39:26.419Z,24.33
2023-02-28T05:40:28.113Z,26.73
2023-02-28T05:41:30.230Z,27.92
2023-02-28T05:42:32.167Z,22.23
2023-02-28T05:43:34.210Z,20.98
2023-02-28T05:44:36.896Z,22.17
2023-02-28T05:45:38.898Z,21.85
2023-02-28T05:46:40.620Z,20.85
2023-02-28T05:47:42.304Z,21.30
2023-02-28T05:48:47.141Z,23.23
2023-02-28T05:49:48.956Z,21.70
2023-02-28T05:50:50.647Z,21.02
2023-02-28T05:51:52.357Z,20.33
2023-02-28T05:52:54.254Z,26.70
2023-02-28T05:53:56.177Z,19.77
2023-02-28T05:54:57.932Z,25.33
2023-02-28T05:56:00.099Z,21.40
2023-02-28T05:57:01.796Z,24.73
2023-02-28T05:58:03.484Z,19.20
2023-02-28T05:59:05.175Z,23.95
2023-02-28T06:00:07.657Z,24.23
2023-02-28T06:01:32.384Z,21.85
2023-02-28T06:02:34.104Z,25.05
2023-02-28T06:03:35.848Z,25.63
2023-02-28T06:04:37.749Z,26.52
2023-02-28T06:05:39.682Z,18.73
2023-02-28T06:06:41.384Z,22.35
2023-02-28T06:07:44.175Z,19.90
2023-02-28T06:08:46.806Z,24.85
2023-02-28T06:09:48.514Z,18.48
2023-02-28T06:10:50.234Z,25.73
2023-02-28T06:11:51.952Z,17.90
2023-02-28T06:12:53.652Z,24.80
2023-02-28T06:14:00.785Z,19.00
2023-02-28T06:15:02.682Z,21.25
2023-02-28T06:16:04.582Z,23.40
2023-02-28T06:17:06.617Z,20.35
2023-02-28T06:18:08.451Z,28.38
2023-02-28T06:19:11.105Z,23.52
2023-02-28T06:20:14.047Z,22.42
2023-02-28T06:21:15.738Z,25.50
2023-02-28T06:22:17.594Z,27.35
2023-02-28T06:23:19.281Z,25.20
2023-02-28T06:24:22.242Z,26.17
2023-02-28T06:25:23.943Z,24.33
2023-02-28T06:26:26.306Z,26.88
2023-02-28T06:27:28.111Z,30.83
2023-02-28T06:28:29.848Z,23.75
2023-02-28T06:29:35.922Z,23.45
2023-02-28T06:30:39.353Z,28.55
2023-02-28T06:31:41.210Z,24.65
2023-02-28T06:32:43.285Z,24.13
2023-02-28T06:33:46.405Z,29.40
2023-02-28T06:34:48.214Z,27.30
2023-02-28T06:35:53.289Z,23.05
2023-02-28T06:36:55.030Z,25.52
2023-02-28T06:37:56.756Z,25.02
2023-02-28T06:38:58.849Z,26.83
2023-02-28T06:40:00.594Z,26.33
2023-02-28T06:41:02.783Z,22.92
2023-02-28T06:42:04.796Z,27.80
2023-02-28T06:43:06.505Z,27.55
2023-02-28T06:44:18.524Z,21.83
2023-02-28T06:45:20.413Z,28.88
2023-02-28T06:46:22.572Z,34.00
2023-02-28T06:47:24.860Z,29.38
2023-02-28T06:48:28.282Z,26.55
2023-02-28T06:49:31.327Z,29.40
2023-02-28T06:50:33.725Z,33.25
2023-02-28T06:51:37.048Z,29.00
2023-02-28T06:52:38.970Z,36.10
2023-02-28T06:53:41.615Z,36.72
2023-02-28T06:54:43.559Z,24.15
2023-02-28T06:55:45.280Z,33.13
2023-02-28T06:56:48.142Z,30.80
2023-02-28T06:57:51.716Z,28.17
2023-02-28T06:58:57.237Z,35.60
2023-02-28T07:00:00.703Z,28.00
2023-02-28T07:01:02.958Z,32.80
2023-02-28T07:02:04.711Z,34.95
2023-02-28T07:03:06.410Z,26.90
2023-02-28T07:04:08.162Z,24.88
2023-02-28T07:05:10.041Z,31.02
2023-02-28T07:06:12.078Z,32.95
2023-02-28T07:07:13.823Z,31.58
2023-02-28T07:08:15.620Z,25.38
2023-02-28T07:09:17.444Z,29.75
2023-02-28T07:10:20.442Z,28.23
2023-02-28T07:11:24.201Z,24.38
2023-02-28T07:12:26.371Z,26.85
2023-02-28T07:13:28.216Z,24.33
2023-02-28T07:14:29.943Z,20.88
2023-02-28T07:15:31.736Z,25.88
2023-02-28T07:16:34.033Z,21.67
2023-02-28T07:17:35.748Z,19.90
2023-02-28T07:18:38.942Z,25.40
2023-02-28T07:19:40.966Z,30.40
2023-02-28T07:20:42.695Z,21.67
2023-02-28T07:21:44.394Z,23.33
2023-02-28T07:22:46.076Z,25.25
2023-02-28T07:23:47.790Z,23.08
2023-02-28T07:24:49.603Z,26.13
2023-02-28T07:25:52.146Z,24.80
2023-02-28T07:26:53.872Z,23.42
2023-02-28T07:27:57.219Z,30.48
2023-02-28T07:28:58.905Z,29.38
2023-02-28T07:30:02.676Z,27.60
2023-02-28T07:31:06.566Z,25.17
2023-02-28T07:32:08.532Z,26.58
2023-02-28T07:33:10.552Z,23.65
2023-02-28T07:34:12.404Z,27.35
2023-02-28T07:35:16.325Z,26.20
2023-02-28T07:36:19.933Z,36.10
2023-02-28T07:37:21.770Z,23.95
2023-02-28T07:38:23.471Z,28.48
2023-02-28T07:39:25.234Z,25.50
2023-02-28T07:40:27.175Z,27.65
2023-02-28T07:41:31.230Z,28.63
2023-02-28T07:42:33.495Z,28.50
2023-02-28T07:43:36.188Z,28.80
2023-02-28T07:44:41.352Z,41.08
2023-02-28T07:45:43.498Z,37.78
2023-02-28T07:46:45.250Z,36.58
2023-02-28T07:47:47.355Z,31.95
2023-02-28T07:48:49.071Z,28.33
2023-02-28T07:49:50.755Z,36.67
2023-02-28T07:50:56.720Z,35.63
2023-02-28T07:51:58.460Z,25.33
2023-02-28T07:53:00.456Z,27.10
2023-02-28T07:54:02.417Z,30.10
2023-02-28T07:55:05.662Z,26.70
2023-02-28T07:56:08.361Z,30.60
2023-02-28T07:57:10.155Z,28.83
2023-02-28T07:58:11.834Z,34.83
2023-02-28T07:59:13.542Z,28.92
2023-02-28T08:00:15.664Z,31.95
2023-02-28T08:01:18.408Z,33.05
2023-02-28T08:02:20.322Z,31.45
2023-02-28T08:03:23.852Z,30.92
2023-02-28T08:04:26.067Z,35.83
2023-02-28T08:05:27.780Z,29.35
2023-02-28T08:06:29.533Z,30.15
2023-02-28T08:07:31.309Z,30.13
2023-02-28T08:08:33.159Z,31.85
2023-02-28T08:09:36.472Z,34.83
2023-02-28T08:10:38.857Z,37.40
2023-02-28T08:11:40.571Z,30.38
2023-02-28T08:12:44.913Z,30.33
2023-02-28T08:13:47.155Z,32.35
2023-02-28T08:14:48.898Z,30.50
2023-02-28T08:15:50.744Z,32.40
2023-02-28T08:16:52.496Z,28.73
2023-02-28T08:17:54.203Z,33.33
2023-02-28T08:18:55.924Z,29.83
2023-02-28T08:19:57.640Z,31.40
2023-02-28T08:21:00.289Z,34.70
2023-02-28T08:22:02.105Z,32.83
2023-02-28T08:23:03.815Z,34.28
2023-02-28T08:24:05.941Z,34.95
2023-02-28T08:25:08.498Z,29.05
2023-02-28T08:26:10.780Z,31.15
2023-02-28T08:27:12.558Z,30.52
2023-02-28T08:28:14.275Z,32.25
2023-02-28T08:29:16.039Z,32.38
2023-02-28T08:30:17.830Z,35.25
2023-02-28T08:31:20.576Z,27.15
2023-02-28T08:32:30.692Z,31.00
2023-02-28T08:33:32.572Z,28.50
2023-02-28T08:34:34.408Z,32.30
2023-02-28T08:35:38.124Z,28.40
2023-02-28T08:36:40.139Z,32.30
2023-02-28T08:37:42.008Z,32.67
2023-02-28T08:38:44.226Z,33.25
2023-02-28T08:39:45.954Z,31.27
2023-02-28T08:40:47.685Z,28.98
2023-02-28T08:41:53.464Z,28.80
2023-02-28T08:44:02.668Z,31.38
2023-02-28T08:45:04.819Z,30.13
2023-02-28T08:46:07.478Z,26.88
2023-02-28T08:47:09.257Z,27.98
2023-02-28T08:48:11.122Z,35.08
2023-02-28T08:49:12.970Z,28.38
2023-02-28T08:50:16.030Z,31.17
2023-02-28T08:51:22.517Z,25.35
2023-02-28T08:52:24.285Z,23.95
2023-02-28T08:53:26.214Z,30.23
2023-02-28T08:54:30.097Z,26.17
2023-02-28T08:55:32.176Z,32.13
2023-02-28T08:56:33.928Z,35.25
2023-02-28T08:57:35.626Z,24.65
2023-02-28T08:58:37.656Z,25.83
2023-02-28T08:59:39.477Z,34.42
2023-02-28T09:00:41.853Z,35.92
2023-02-28T09:01:44.755Z,29.27
2023-02-28T09:02:46.537Z,33.42
2023-02-28T09:03:50.359Z,32.20
2023-02-28T09:04:52.143Z,32.47
2023-02-28T09:06:03.424Z,29.85
2023-02-28T09:10:11.211Z,27.65
2023-02-28T09:11:13.632Z,32.08
2023-02-28T09:12:15.428Z,33.28
2023-02-28T09:13:17.161Z,29.63
2023-02-28T09:14:18.971Z,29.75
2023-02-28T09:15:20.697Z,27.90
2023-02-28T09:16:22.913Z,25.13
2023-02-28T09:17:24.898Z,31.73
2023-02-28T09:18:32.824Z,44.03
2023-02-28T09:19:34.532Z,27.73
2023-02-28T09:20:40.181Z,26.58
2023-02-28T09:21:42.001Z,31.77
2023-02-28T09:22:43.738Z,33.00
2023-02-28T09:23:47.236Z,33.33
2023-02-28T09:24:48.951Z,34.63
2023-02-28T09:25:55.360Z,29.38
2023-02-28T09:27:04.886Z,30.25
2023-02-28T09:28:07.184Z,28.55
2023-02-28T09:29:08.895Z,28.27
2023-02-28T09:30:11.290Z,25.73
2023-02-28T09:31:22.074Z,28.80
2023-02-28T09:32:23.965Z,30.35
2023-02-28T09:33:27.107Z,26.40
2023-02-28T09:34:29.366Z,28.63
2023-02-28T09:35:31.798Z,30.30
2023-02-28T09:36:44.721Z,37.20
2023-02-28T09:37:47.162Z,29.95
2023-02-28T09:38:49.770Z,32.75
2023-02-28T09:39:51.531Z,29.42
2023-02-28T09:41:00.052Z,27.85
2023-02-28T09:42:03.443Z,31.02
2023-02-28T09:43:06.876Z,30.48
2023-02-28T09:44:14.775Z,27.45
2023-02-28T09:45:33.694Z,28.15
2023-02-28T09:46:49.702Z,29.38
2023-02-28T09:47:55.249Z,32.17
2023-02-28T09:48:58.045Z,32.58
2023-02-28T09:50:18.008Z,33.22
2023-02-28T09:51:22.512Z,34.53
2023-02-28T09:52:31.714Z,35.03
2023-02-28T09:53:40.860Z,31.33
2023-02-28T09:54:43.383Z,32.28
2023-02-28T09:55:56.352Z,41.45
2023-02-28T09:57:03.935Z,31.10
2023-02-28T09:58:06.578Z,32.13
2023-02-28T09:59:11.146Z,33.05
2023-02-28T10:00:26.155Z,34.67
2023-02-28T10:01:40.355Z,30.27
2023-02-28T10:03:24.729Z,29.10
2023-02-28T10:04:53.656Z,35.10
2023-02-28T10:06:00.951Z,33.45
2023-02-28T10:07:08.034Z,33.42
2023-02-28T10:08:22.496Z,32.67
2023-02-28T10:09:31.630Z,31.25
2023-02-28T10:10:42.208Z,33.42
2023-02-28T10:12:53.810Z,36.60
2023-02-28T10:14:27.243Z,36.00
2023-02-28T10:15:33.037Z,38.17
2023-02-28T10:17:06.546Z,34.10
2023-02-28T10:18:15.828Z,36.35
2023-02-28T10:19:37.552Z,31.30
2023-02-28T10:20:42.186Z,42.90
2023-02-28T10:21:52.002Z,41.13
2023-02-28T10:22:58.115Z,40.30
2023-02-28T10:24:21.746Z,34.53
2023-02-28T10:25:27.722Z,36.00
2023-02-28T10:26:32.384Z,36.90
2023-02-28T10:27:34.372Z,38.13
2023-02-28T10:28:36.115Z,41.03
2023-02-28T10:29:41.290Z,38.17
2023-02-28T10:30:49.668Z,38.70
2023-02-28T10:31:51.730Z,41.17
2023-02-28T10:32:57.492Z,37.65
2023-02-28T10:33:59.265Z,33.90
2023-02-28T10:35:08.556Z,38.47
2023-02-28T10:36:15.527Z,35.55
2023-02-28T10:37:17.726Z,35.08
2023-02-28T10:38:26.140Z,40.40
2023-02-28T10:39:42.051Z,33.17
2023-02-28T10:40:43.777Z,36.88
2023-02-28T10:41:45.563Z,33.85
2023-02-28T10:43:02.912Z,36.38
2023-02-28T10:44:24.531Z,34.22
2023-02-28T10:46:34.797Z,36.78
2023-02-28T10:47:49.648Z,38.97
2023-02-28T10:49:04.457Z,33.40
2023-02-28T10:50:06.594Z,41.95
2023-02-28T10:51:13.676Z,37.92
2023-02-28T10:52:33.834Z,36.40
2023-02-28T10:53:57.604Z,40.45
2023-02-28T10:55:26.258Z,36.80
2023-02-28T10:56:28.537Z,37.80
2023-02-28T10:57:31.703Z,41.13
2023-02-28T10:58:54.928Z,38.58
2023-02-28T11:00:21.379Z,36.70
2023-02-28T11:01:41.365Z,45.97
2023-02-28T11:02:45.641Z,38.00
2023-02-28T11:03:48.389Z,48.85
2023-02-28T11:04:50.121Z,43.85
2023-02-28T11:05:52.050Z,48.67
2023-02-28T11:07:02.110Z,48.03
2023-02-28T11:08:17.393Z,41.90
2023-02-28T11:09:25.211Z,37.17
2023-02-28T11:10:31.616Z,48.38
2023-02-28T11:11:44.517Z,40.10
2023-02-28T11:12:52.645Z,42.78
2023-02-28T11:14:05.688Z,45.75
2023-02-28T11:15:23.352Z,43.83
2023-02-28T11:16:38.031Z,41.50
2023-02-28T11:17:39.985Z,45.15
2023-02-28T11:18:48.423Z,43.85
2023-02-28T11:19:54.223Z,42.90
2023-02-28T11:20:59.870Z,43.80
2023-02-28T11:22:04.205Z,45.20
2023-02-28T11:23:11.980Z,44.00
2023-02-28T11:24:20.889Z,39.15
2023-02-28T11:25:34.591Z,47.20
2023-02-28T11:26:45.851Z,47.85
2023-02-28T11:29:10.315Z,44.88
2023-02-28T11:30:24.817Z,42.13
2023-02-28T11:31:28.531Z,51.70
2023-02-28T11:32:32.597Z,47.67
2023-02-28T11:33:52.585Z,40.33
2023-02-28T11:35:05.669Z,47.53
2023-02-28T11:36:21.381Z,46.40
2023-02-28T11:37:23.556Z,41.40
2023-02-28T11:38:27.139Z,42.95
2023-02-28T11:39:29.346Z,45.92
2023-02-28T11:40:37.140Z,40.60
2023-02-28T11:41:57.509Z,45.35
2023-02-28T11:43:20.856Z,40.15
2023-02-28T11:44:47.419Z,41.20
2023-02-28T11:46:00.958Z,42.67
2023-02-28T11:47:13.995Z,41.60
2023-02-28T11:48:24.424Z,42.60
2023-02-28T11:49:42.635Z,43.67
2023-02-28T11:50:53.291Z,39.45
2023-02-28T11:52:01.733Z,50.72
2023-02-28T11:53:17.865Z,48.78
2023-02-28T11:54:36.887Z,45.03
2023-02-28T11:55:49.940Z,44.03
2023-02-28T11:57:01.257Z,46.80
2023-02-28T12:00:07.799Z,53.03
2023-02-28T12:01:43.120Z,46.50
2023-02-28T12:03:00.156Z,53.65
2023-02-28T12:04:23.581Z,44.63
2023-02-28T12:05:35.056Z,49.88
2023-02-28T12:06:57.766Z,54.85
2023-02-28T12:08:11.709Z,46.75
2023-02-28T12:09:21.836Z,50.42
2023-02-28T12:10:25.974Z,49.35
2023-02-28T12:11:46.150Z,46.30
2023-02-28T12:13:22.884Z,46.97
2023-02-28T12:14:36.746Z,49.00
2023-02-28T12:16:19.798Z,55.58
2023-02-28T12:17:46.636Z,55.08
2023-02-28T12:19:06.729Z,50.70
2023-02-28T12:20:43.581Z,58.78
2023-02-28T12:22:04.005Z,52.63
2023-02-28T12:23:43.017Z,52.28
2023-02-28T12:25:25.419Z,51.78
2023-02-28T12:26:41.299Z,51.50
2023-02-28T12:27:47.430Z,53.78
2023-02-28T12:28:54.279Z,49.90
2023-02-28T12:30:24.945Z,60.15
2023-02-28T12:32:08.947Z,60.63
2023-02-28T12:33:14.082Z,53.92
2023-02-28T12:34:26.583Z,55.65
2023-02-28T12:35:56.632Z,66.40
2023-02-28T12:37:03.700Z,54.40
2023-02-28T12:38:27.609Z,54.22
2023-02-28T12:39:48.344Z,59.10
2023-02-28T12:41:11.932Z,62.65
2023-02-28T12:42:33.529Z,62.03
2023-02-28T12:45:11.313Z,61.10
2023-02-28T12:46:26.866Z,64.15
2023-02-28T12:47:28.757Z,62.95
2023-02-28T12:48:43.510Z,65.93
2023-02-28T12:50:00.861Z,66.30
2023-02-28T12:51:03.921Z,61.53
2023-02-28T12:52:07.543Z,59.78
2023-02-28T12:53:43.475Z,66.43
2023-02-28T12:55:09.343Z,64.47
2023-02-28T12:56:14.102Z,65.93
2023-02-28T12:57:42.655Z,73.43
2023-02-28T12:58:52.663Z,68.25
2023-02-28T12:59:59.526Z,70.13
2023-02-28T13:01:36.510Z,66.00
2023-02-28T13:03:05.923Z,78.63
2023-02-28T13:04:33.366Z,71.97
2023-02-28T13:05:53.585Z,75.38
2023-02-28T13:07:14.091Z,73.20
2023-02-28T13:08:18.730Z,73.60
2023-02-28T13:09:20.785Z,67.20
2023-02-28T13:10:22.647Z,71.68
2023-02-28T13:11:33.781Z,71.30
2023-02-28T13:13:38.735Z,71.30
2023-02-28T13:14:40.917Z,76.80
2023-02-28T13:15:59.425Z,74.78
2023-02-28T13:17:11.526Z,77.68
2023-02-28T13:18:29.871Z,74.88
2023-02-28T13:19:35.681Z,73.63
2023-02-28T13:20:49.386Z,68.50
2023-02-28T13:21:52.612Z,71.20
2023-02-28T13:22:56.338Z,79.65
2023-02-28T13:24:04.947Z,66.63
2023-02-28T13:25:34.662Z,60.00
2023-02-28T13:26:39.360Z,62.20
2023-02-28T13:27:42.969Z,56.63
2023-02-28T13:29:10.955Z,60.35
2023-02-28T13:30:49.811Z,64.50
2023-02-28T13:32:04.166Z,59.40
2023-02-28T13:33:21.213Z,64.68
2023-02-28T13:34:23.010Z,56.35
2023-02-28T13:35:43.986Z,54.45
2023-02-28T13:36:45.876Z,80.03
2023-02-28T13:37:50.946Z,65.95
2023-02-28T13:38:54.897Z,61.72
2023-02-28T13:40:00.482Z,63.72
2023-02-28T13:41:30.539Z,63.75
2023-02-28T13:42:32.481Z,51.53
2023-02-28T13:44:13.200Z,54.20
2023-02-28T13:45:14.848Z,47.90
2023-02-28T13:46:16.562Z,55.08
2023-02-28T13:47:25.709Z,52.45
2023-02-28T13:48:30.602Z,53.30
2023-02-28T13:49:33.894Z,55.10
2023-02-28T13:50:43.464Z,44.00
2023-02-28T13:52:03.995Z,54.25
2023-02-28T13:53:14.856Z,44.30
2023-02-28T13:54:25.701Z,49.17
2023-02-28T13:55:33.407Z,43.13
2023-02-28T13:56:46.564Z,45.60
2023-02-28T13:58:35.139Z,41.83
2023-02-28T14:00:06.601Z,39.17
2023-02-28T14:01:15.522Z,37.00
2023-02-28T14:02:23.045Z,43.28
2023-02-28T14:03:41.181Z,46.80
2023-02-28T14:04:59.807Z,42.53
2023-02-28T14:06:33.705Z,45.58
2023-02-28T14:08:18.091Z,53.10
2023-02-28T14:09:32.932Z,47.05
2023-02-28T14:10:49.002Z,52.17
2023-02-28T14:11:51.696Z,59.17
2023-02-28T14:13:35.432Z,55.95
2023-02-28T14:14:37.128Z,58.22
2023-02-28T14:15:58.019Z,49.35
2023-02-28T14:16:59.955Z,53.08
2023-02-28T14:18:05.105Z,48.55
2023-02-28T14:19:18.584Z,51.80
2023-02-28T14:20:22.936Z,49.90
2023-02-28T14:21:29.924Z,48.72
2023-02-28T14:22:54.982Z,49.92
2023-02-28T14:24:14.777Z,49.38
2023-02-28T14:25:37.627Z,46.75
2023-02-28T14:27:17.728Z,54.67
2023-02-28T14:28:41.749Z,53.88
2023-02-28T14:29:52.237Z,59.45
2023-02-28T14:31:08.859Z,48.25
2023-02-28T14:32:28.947Z,55.13
2023-02-28T14:33:30.684Z,51.45
2023-02-28T14:34:56.948Z,54.58
2023-02-28T14:36:27.987Z,53.40
2023-02-28T14:37:33.748Z,51.97
2023-02-28T14:39:04.477Z,49.45
2023-02-28T14:40:15.883Z,49.58
2023-02-28T14:41:40.061Z,54.65
2023-02-28T14:42:49.184Z,48.38
2023-02-28T14:43:54.411Z,52.05
2023-02-28T14:44:59.041Z,45.47